Terminal Aerodrome Forecast
Issued by NWS Mt. Holly, NJ

Home | Current Version | Previous Version | Text Only | Print | Product List | Glossary On
Versions: 1 2 3 4 5 6 7 8 9 10 11 12 13 14 15 16 17 18 19
000
FTAK31 PANC 291031 AAB
TAFABE
TAF AMD
PABE 291031Z 2911/3006 17007KT 4SM BR SCT008 OVC025
      TEMPO 2911/2915 1SM BR BKN008 OVC012
     FM292000 16009KT P6SM BKN012 OVC025
     FM292200 16013KT P6SM BKN035
     FM300400 15008KT P6SM SCT025 BKN035=

USA.gov is the U.S. government's official web portal to all federal, state and local government web resources and services.